No particular awareness of the weather is required.    There are no Weather-warnings


Meteo18 Weather Cam more information Meteo18 Weather Cam


Thunder radar more information blitzortung!


Rain radar more information rain snow radar


Visit our other weather sites:

Template documentation
and downloads

And another site



Weather Underground History page Text

Daily Summary for April 11, 2017 Units:  Both    English   Metric
« Previous Day
Next Day »
Daily Weekly Monthly Yearly Custom
  High: Low: Average:
Temperature: 58.6 °F /  14.8 °C 41.2 °F /  5.1 °C 50.5 °F /  10.3 °C
Dew Point: 45.3 °F /  7.4 °C 36.7 °F /  2.6 °C 40.5 °F /  4.7 °C
Humidity: 88 % 49 % 70 %
Wind Speed: 12 mph /  19.3 km/h - 3.4 mph /  5.5 km/h
Wind Gust: 15 mph /  24.1 km/h - -
Wind:- - SW
Pressure: 30.4 in /  1027.7 hPa 30.3 in /  1025.6 hPa -
Precipitation: 0 in /  0.0 mm    
Historical Graphs
 
 
Tabular Data for April 11, 2017
Time Temperature Dew Point Pressure Wind Wind Speed Wind Gust Humidity Rainfall Rate (Hourly)
00:02 50.4 °F /  10.2 °C 44.8 °F /  7.1 °C 30.3 in /  1025.6 hPa NW 1 mph /  1.6 km/h 3 mph /  4.8 km/h 81 % 0 in /  0.0 mm
00:07 50.4 °F /  10.2 °C 44.8 °F /  7.1 °C 30.3 in /  1025.6 hPa NW 2 mph /  3.2 km/h 3 mph /  4.8 km/h 81 % 0 in /  0.0 mm
00:12 50.4 °F /  10.2 °C 44.8 °F /  7.1 °C 30.3 in /  1025.6 hPa WNW 1 mph /  1.6 km/h 3 mph /  4.8 km/h 81 % 0 in /  0.0 mm
00:17 50.2 °F /  10.1 °C 44.6 °F /  7.0 °C 30.3 in /  1026.0 hPa Calm   3 mph /  4.8 km/h 81 % 0 in /  0.0 mm
00:22 50.2 °F /  10.1 °C 44.6 °F /  7.0 °C 30.3 in /  1025.6 hPa Calm   3 mph /  4.8 km/h 81 % 0 in /  0.0 mm
00:27 50 °F /  10.0 °C 44.8 °F /  7.1 °C 30.3 in /  1026.0 hPa Calm   2 mph /  3.2 km/h 82 % 0 in /  0.0 mm
00:32 50.2 °F /  10.1 °C 45 °F /  7.2 °C 30.3 in /  1026.0 hPa NW 2 mph /  3.2 km/h 2 mph /  3.2 km/h 82 % 0 in /  0.0 mm
00:37 50.4 °F /  10.2 °C 45.1 °F /  7.3 °C 30.3 in /  1026.0 hPa WNW 3 mph /  4.8 km/h 3 mph /  4.8 km/h 82 % 0 in /  0.0 mm
00:42 50.4 °F /  10.2 °C 44.8 °F /  7.1 °C 30.3 in /  1026.0 hPa Calm   3 mph /  4.8 km/h 81 % 0 in /  0.0 mm
00:47 50.4 °F /  10.2 °C 44.8 °F /  7.1 °C 30.3 in /  1026.0 hPa WNW 1 mph /  1.6 km/h 3 mph /  4.8 km/h 81 % 0 in /  0.0 mm
00:52 50.4 °F /  10.2 °C 45.1 °F /  7.3 °C 30.3 in /  1026.0 hPa NW 2 mph /  3.2 km/h 4 mph /  6.4 km/h 82 % 0 in /  0.0 mm
00:57 50.4 °F /  10.2 °C 44.8 °F /  7.1 °C 30.3 in /  1026.0 hPa NW 1 mph /  1.6 km/h 4 mph /  6.4 km/h 81 % 0 in /  0.0 mm
01:02 50.4 °F /  10.2 °C 45.1 °F /  7.3 °C 30.3 in /  1026.0 hPa NW 4 mph /  6.4 km/h 4 mph /  6.4 km/h 82 % 0 in /  0.0 mm
01:07 50.5 °F /  10.3 °C 45 °F /  7.2 °C 30.3 in /  1026.0 hPa North 1 mph /  1.6 km/h 4 mph /  6.4 km/h 81 % 0 in /  0.0 mm
01:12 50.9 °F /  10.5 °C 45 °F /  7.2 °C 30.3 in /  1026.0 hPa NNW 3 mph /  4.8 km/h 7 mph /  11.3 km/h 80 % 0 in /  0.0 mm
01:17 51.3 °F /  10.7 °C 45.3 °F /  7.4 °C 30.3 in /  1026.0 hPa North 4 mph /  6.4 km/h 7 mph /  11.3 km/h 80 % 0 in /  0.0 mm
01:22 51.4 °F /  10.8 °C 44.1 °F /  6.7 °C 30.3 in /  1026.0 hPa NNE 7 mph /  11.3 km/h 7 mph /  11.3 km/h 76 % 0 in /  0.0 mm
01:27 51.4 °F /  10.8 °C 43.7 °F /  6.5 °C 30.3 in /  1026.0 hPa NE 4 mph /  6.4 km/h 12 mph /  19.3 km/h 75 % 0 in /  0.0 mm
01:32 51.4 °F /  10.8 °C 43.7 °F /  6.5 °C 30.3 in /  1026.0 hPa NNE 3 mph /  4.8 km/h 12 mph /  19.3 km/h 75 % 0 in /  0.0 mm
01:37 51.3 °F /  10.7 °C 43.9 °F /  6.6 °C 30.3 in /  1026.0 hPa NNW 3 mph /  4.8 km/h 12 mph /  19.3 km/h 76 % 0 in /  0.0 mm
01:42 51.3 °F /  10.7 °C 44.2 °F /  6.8 °C 30.3 in /  1026.0 hPa Calm   9 mph /  14.5 km/h 77 % 0 in /  0.0 mm
01:47 50.9 °F /  10.5 °C 43.5 °F /  6.4 °C 30.3 in /  1026.0 hPa NW 5 mph /  8.0 km/h 9 mph /  14.5 km/h 76 % 0 in /  0.0 mm
01:52 50.5 °F /  10.3 °C 43 °F /  6.1 °C 30.3 in /  1026.0 hPa NE 2 mph /  3.2 km/h 11 mph /  17.7 km/h 75 % 0 in /  0.0 mm
01:57 50.5 °F /  10.3 °C 43 °F /  6.1 °C 30.3 in /  1026.0 hPa NNE 7 mph /  11.3 km/h 14 mph /  22.5 km/h 75 % 0 in /  0.0 mm
02:02 50.4 °F /  10.2 °C 43.2 °F /  6.2 °C 30.3 in /  1026.0 hPa NNE 4 mph /  6.4 km/h 14 mph /  22.5 km/h 76 % 0 in /  0.0 mm
02:12 49.6 °F /  9.8 °C 42.8 °F /  6.0 °C 30.3 in /  1026.0 hPa NNE 1 mph /  1.6 km/h 9 mph /  14.5 km/h 77 % 0 in /  0.0 mm
02:17 49.5 °F /  9.7 °C 42.6 °F /  5.9 °C 30.3 in /  1026.0 hPa NNW 2 mph /  3.2 km/h 7 mph /  11.3 km/h 77 % 0 in /  0.0 mm
02:22 49.3 °F /  9.6 °C 42.8 °F /  6.0 °C 30.3 in /  1026.0 hPa NNW 2 mph /  3.2 km/h 5 mph /  8.0 km/h 78 % 0 in /  0.0 mm
02:27 48.9 °F /  9.4 °C 42.4 °F /  5.8 °C 30.3 in /  1026.0 hPa NW 1 mph /  1.6 km/h 5 mph /  8.0 km/h 78 % 0 in /  0.0 mm
02:32 48.6 °F /  9.2 °C 42.1 °F /  5.6 °C 30.3 in /  1026.0 hPa Calm   5 mph /  8.0 km/h 78 % 0 in /  0.0 mm
02:37 48.4 °F /  9.1 °C 41.9 °F /  5.5 °C 30.3 in /  1026.0 hPa WNW 1 mph /  1.6 km/h 3 mph /  4.8 km/h 78 % 0 in /  0.0 mm
02:42 48 °F /  8.9 °C 41.9 °F /  5.5 °C 30.3 in /  1026.0 hPa Calm   4 mph /  6.4 km/h 79 % 0 in /  0.0 mm
02:47 47.5 °F /  8.6 °C 41.4 °F /  5.2 °C 30.3 in /  1026.0 hPa WNW 1 mph /  1.6 km/h 4 mph /  6.4 km/h 79 % 0 in /  0.0 mm
02:52 47.1 °F /  8.4 °C 41.4 °F /  5.2 °C 30.3 in /  1026.0 hPa WNW 1 mph /  1.6 km/h 3 mph /  4.8 km/h 80 % 0 in /  0.0 mm
02:57 47.1 °F /  8.4 °C 41 °F /  5.0 °C 30.3 in /  1026.0 hPa WNW 3 mph /  4.8 km/h 3 mph /  4.8 km/h 79 % 0 in /  0.0 mm
03:02 47.1 °F /  8.4 °C 41 °F /  5.0 °C 30.3 in /  1026.0 hPa NW 1 mph /  1.6 km/h 4 mph /  6.4 km/h 79 % 0 in /  0.0 mm
03:07 47.1 °F /  8.4 °C 41 °F /  5.0 °C 30.3 in /  1026.0 hPa Calm   4 mph /  6.4 km/h 79 % 0 in /  0.0 mm
03:12 47.5 °F /  8.6 °C 40.6 °F /  4.8 °C 30.3 in /  1026.0 hPa WNW 2 mph /  3.2 km/h 5 mph /  8.0 km/h 77 % 0 in /  0.0 mm
03:17 47.5 °F /  8.6 °C 40.6 °F /  4.8 °C 30.3 in /  1026.0 hPa NNW 3 mph /  4.8 km/h 5 mph /  8.0 km/h 77 % 0 in /  0.0 mm
03:22 47.7 °F /  8.7 °C 40.8 °F /  4.9 °C 30.3 in /  1026.0 hPa NW 1 mph /  1.6 km/h 5 mph /  8.0 km/h 77 % 0 in /  0.0 mm
03:27 47.7 °F /  8.7 °C 40.8 °F /  4.9 °C 30.3 in /  1026.0 hPa NNW 1 mph /  1.6 km/h 5 mph /  8.0 km/h 77 % 0 in /  0.0 mm
03:32 47.5 °F /  8.6 °C 41 °F /  5.0 °C 30.3 in /  1026.0 hPa NW 2 mph /  3.2 km/h 4 mph /  6.4 km/h 78 % 0 in /  0.0 mm
03:37 47.5 °F /  8.6 °C 41 °F /  5.0 °C 30.3 in /  1026.0 hPa NW 3 mph /  4.8 km/h 5 mph /  8.0 km/h 78 % 0 in /  0.0 mm
03:42 47.5 °F /  8.6 °C 41 °F /  5.0 °C 30.3 in /  1026.0 hPa NNW 3 mph /  4.8 km/h 5 mph /  8.0 km/h 78 % 0 in /  0.0 mm
03:47 47.5 °F /  8.6 °C 40.6 °F /  4.8 °C 30.3 in /  1026.0 hPa North 4 mph /  6.4 km/h 6 mph /  9.7 km/h 77 % 0 in /  0.0 mm
03:52 47.5 °F /  8.6 °C 40.6 °F /  4.8 °C 30.3 in /  1026.0 hPa North 2 mph /  3.2 km/h 7 mph /  11.3 km/h 77 % 0 in /  0.0 mm
03:57 47.1 °F /  8.4 °C 40.3 °F /  4.6 °C 30.3 in /  1026.0 hPa NNW 2 mph /  3.2 km/h 7 mph /  11.3 km/h 77 % 0 in /  0.0 mm
04:02 47.1 °F /  8.4 °C 40.6 °F /  4.8 °C 30.3 in /  1026.0 hPa NNW 2 mph /  3.2 km/h 7 mph /  11.3 km/h 78 % 0 in /  0.0 mm
04:07 46.9 °F /  8.3 °C 40.5 °F /  4.7 °C 30.3 in /  1026.0 hPa North 3 mph /  4.8 km/h 5 mph /  8.0 km/h 78 % 0 in /  0.0 mm
04:12 46.8 °F /  8.2 °C 40.3 °F /  4.6 °C 30.3 in /  1026.0 hPa Calm   5 mph /  8.0 km/h 78 % 0 in /  0.0 mm
04:17 46.6 °F /  8.1 °C 40.1 °F /  4.5 °C 30.3 in /  1026.0 hPa North 7 mph /  11.3 km/h 7 mph /  11.3 km/h 78 % 0 in /  0.0 mm
04:22 46.2 °F /  7.9 °C 39.7 °F /  4.3 °C 30.3 in /  1026.0 hPa North 4 mph /  6.4 km/h 7 mph /  11.3 km/h 78 % 0 in /  0.0 mm
04:32 45.3 °F /  7.4 °C 39.6 °F /  4.2 °C 30.3 in /  1026.0 hPa NNE 4 mph /  6.4 km/h 7 mph /  11.3 km/h 80 % 0 in /  0.0 mm
04:37 45.1 °F /  7.3 °C 39.4 °F /  4.1 °C 30.3 in /  1026.0 hPa North 2 mph /  3.2 km/h 6 mph /  9.7 km/h 80 % 0 in /  0.0 mm
04:42 45.1 °F /  7.3 °C 39.4 °F /  4.1 °C 30.3 in /  1026.0 hPa North 4 mph /  6.4 km/h 7 mph /  11.3 km/h 80 % 0 in /  0.0 mm
04:47 45.1 °F /  7.3 °C 39.4 °F /  4.1 °C 30.3 in /  1026.0 hPa NNW 4 mph /  6.4 km/h 7 mph /  11.3 km/h 80 % 0 in /  0.0 mm
04:52 45 °F /  7.2 °C 39.2 °F /  4.0 °C 30.3 in /  1026.0 hPa NNE 3 mph /  4.8 km/h 7 mph /  11.3 km/h 80 % 0 in /  0.0 mm
05:02 44.8 °F /  7.1 °C 39 °F /  3.9 °C 30.3 in /  1026.0 hPa NW 4 mph /  6.4 km/h 10 mph /  16.1 km/h 80 % 0 in /  0.0 mm
05:12 44.2 °F /  6.8 °C 38.8 °F /  3.8 °C 30.3 in /  1026.0 hPa North 2 mph /  3.2 km/h 10 mph /  16.1 km/h 81 % 0 in /  0.0 mm
05:17 44.2 °F /  6.8 °C 38.8 °F /  3.8 °C 30.3 in /  1026.0 hPa North 2 mph /  3.2 km/h 8 mph /  12.9 km/h 81 % 0 in /  0.0 mm
05:22 44.1 °F /  6.7 °C 38.7 °F /  3.7 °C 30.3 in /  1026.0 hPa Calm   8 mph /  12.9 km/h 81 % 0 in /  0.0 mm
05:27 43.9 °F /  6.6 °C 38.7 °F /  3.7 °C 30.3 in /  1026.0 hPa NNE 1 mph /  1.6 km/h 6 mph /  9.7 km/h 82 % 0 in /  0.0 mm
05:32 43.5 °F /  6.4 °C 38.5 °F /  3.6 °C 30.3 in /  1025.6 hPa North 1 mph /  1.6 km/h 6 mph /  9.7 km/h 82 % 0 in /  0.0 mm
05:37 43.3 °F /  6.3 °C 38.5 °F /  3.6 °C 30.3 in /  1025.6 hPa North 3 mph /  4.8 km/h 6 mph /  9.7 km/h 83 % 0 in /  0.0 mm
05:42 43.3 °F /  6.3 °C 38.5 °F /  3.6 °C 30.3 in /  1025.6 hPa Calm   6 mph /  9.7 km/h 83 % 0 in /  0.0 mm
05:52 43 °F /  6.1 °C 38.1 °F /  3.4 °C 30.3 in /  1025.6 hPa Calm   4 mph /  6.4 km/h 83 % 0 in /  0.0 mm
05:57 42.6 °F /  5.9 °C 38.1 °F /  3.4 °C 30.3 in /  1025.6 hPa Calm   2 mph /  3.2 km/h 84 % 0 in /  0.0 mm
06:02 42.6 °F /  5.9 °C 38.1 °F /  3.4 °C 30.3 in /  1025.6 hPa NW 2 mph /  3.2 km/h 2 mph /  3.2 km/h 84 % 0 in /  0.0 mm
06:12 42.4 °F /  5.8 °C 37.9 °F /  3.3 °C 30.3 in /  1025.6 hPa NNW 2 mph /  3.2 km/h 4 mph /  6.4 km/h 84 % 0 in /  0.0 mm
06:17 42.4 °F /  5.8 °C 38.3 °F /  3.5 °C 30.3 in /  1025.6 hPa Calm   4 mph /  6.4 km/h 85 % 0 in /  0.0 mm
06:22 42.1 °F /  5.6 °C 37.9 °F /  3.3 °C 30.3 in /  1025.6 hPa NNW 1 mph /  1.6 km/h 4 mph /  6.4 km/h 85 % 0 in /  0.0 mm
06:32 41.7 °F /  5.4 °C 37.8 °F /  3.2 °C 30.3 in /  1025.6 hPa NNW 1 mph /  1.6 km/h 4 mph /  6.4 km/h 86 % 0 in /  0.0 mm
06:42 41.4 °F /  5.2 °C 37.6 °F /  3.1 °C 30.3 in /  1025.6 hPa Calm   2 mph /  3.2 km/h 86 % 0 in /  0.0 mm
06:52 41.4 °F /  5.2 °C 37.8 °F /  3.2 °C 30.3 in /  1026.0 hPa NW 1 mph /  1.6 km/h 3 mph /  4.8 km/h 87 % 0 in /  0.0 mm
06:57 41.5 °F /  5.3 °C 37.9 °F /  3.3 °C 30.3 in /  1026.0 hPa NNW 2 mph /  3.2 km/h 3 mph /  4.8 km/h 87 % 0 in /  0.0 mm
07:02 41.4 °F /  5.2 °C 37.6 °F /  3.1 °C 30.3 in /  1026.0 hPa NNE 2 mph /  3.2 km/h 3 mph /  4.8 km/h 86 % 0 in /  0.0 mm
07:12 41.2 °F /  5.1 °C 37.6 °F /  3.1 °C 30.3 in /  1026.0 hPa NW 1 mph /  1.6 km/h 4 mph /  6.4 km/h 87 % 0 in /  0.0 mm
07:17 41.2 °F /  5.1 °C 37.6 °F /  3.1 °C 30.3 in /  1026.0 hPa NNE 1 mph /  1.6 km/h 4 mph /  6.4 km/h 87 % 0 in /  0.0 mm
07:22 41.4 °F /  5.2 °C 37.8 °F /  3.2 °C 30.3 in /  1026.0 hPa NW 2 mph /  3.2 km/h 4 mph /  6.4 km/h 87 % 0 in /  0.0 mm
07:27 41.5 °F /  5.3 °C 37.9 °F /  3.3 °C 30.3 in /  1026.0 hPa NNW 4 mph /  6.4 km/h 5 mph /  8.0 km/h 87 % 0 in /  0.0 mm
07:32 41.5 °F /  5.3 °C 37.9 °F /  3.3 °C 30.3 in /  1026.0 hPa NNW 2 mph /  3.2 km/h 5 mph /  8.0 km/h 87 % 0 in /  0.0 mm
07:37 41.5 °F /  5.3 °C 37.9 °F /  3.3 °C 30.3 in /  1026.0 hPa NNW 2 mph /  3.2 km/h 5 mph /  8.0 km/h 87 % 0 in /  0.0 mm
07:42 41.5 °F /  5.3 °C 37.9 °F /  3.3 °C 30.3 in /  1026.0 hPa NNW 2 mph /  3.2 km/h 5 mph /  8.0 km/h 87 % 0 in /  0.0 mm
07:52 41.5 °F /  5.3 °C 37.9 °F /  3.3 °C 30.3 in /  1026.0 hPa NNW 2 mph /  3.2 km/h 4 mph /  6.4 km/h 87 % 0 in /  0.0 mm
07:57 41.5 °F /  5.3 °C 37.9 °F /  3.3 °C 30.3 in /  1026.0 hPa North 3 mph /  4.8 km/h 4 mph /  6.4 km/h 87 % 0 in /  0.0 mm
08:02 41.7 °F /  5.4 °C 38.5 °F /  3.6 °C 30.3 in /  1026.0 hPa NNE 1 mph /  1.6 km/h 4 mph /  6.4 km/h 88 % 0 in /  0.0 mm
08:07 42.1 °F /  5.6 °C 38.8 °F /  3.8 °C 30.3 in /  1026.3 hPa NNW 2 mph /  3.2 km/h 5 mph /  8.0 km/h 88 % 0 in /  0.0 mm
08:12 42.3 °F /  5.7 °C 39 °F /  3.9 °C 30.3 in /  1026.3 hPa NW 2 mph /  3.2 km/h 5 mph /  8.0 km/h 88 % 0 in /  0.0 mm
08:17 42.6 °F /  5.9 °C 39 °F /  3.9 °C 30.3 in /  1026.3 hPa NNW 4 mph /  6.4 km/h 7 mph /  11.3 km/h 87 % 0 in /  0.0 mm
08:22 43 °F /  6.1 °C 38.8 °F /  3.8 °C 30.3 in /  1026.3 hPa NNW 6 mph /  9.7 km/h 7 mph /  11.3 km/h 85 % 0 in /  0.0 mm
08:27 43.3 °F /  6.3 °C 39.2 °F /  4.0 °C 30.3 in /  1026.3 hPa NE 3 mph /  4.8 km/h 7 mph /  11.3 km/h 85 % 0 in /  0.0 mm
08:32 43.5 °F /  6.4 °C 39 °F /  3.9 °C 30.3 in /  1026.3 hPa NNW 3 mph /  4.8 km/h 7 mph /  11.3 km/h 84 % 0 in /  0.0 mm
08:37 43.7 °F /  6.5 °C 39.2 °F /  4.0 °C 30.3 in /  1026.6 hPa North 6 mph /  9.7 km/h 8 mph /  12.9 km/h 84 % 0 in /  0.0 mm
08:42 44.1 °F /  6.7 °C 39.6 °F /  4.2 °C 30.3 in /  1026.6 hPa NNW 2 mph /  3.2 km/h 8 mph /  12.9 km/h 84 % 0 in /  0.0 mm
08:47 44.2 °F /  6.8 °C 39.7 °F /  4.3 °C 30.3 in /  1026.6 hPa NNE 9 mph /  14.5 km/h 9 mph /  14.5 km/h 84 % 0 in /  0.0 mm
08:52 44.4 °F /  6.9 °C 39.6 °F /  4.2 °C 30.3 in /  1027.0 hPa NE 3 mph /  4.8 km/h 8 mph /  12.9 km/h 83 % 0 in /  0.0 mm
08:57 44.6 °F /  7.0 °C 39.4 °F /  4.1 °C 30.3 in /  1027.0 hPa NNE 9 mph /  14.5 km/h 11 mph /  17.7 km/h 82 % 0 in /  0.0 mm
09:02 44.8 °F /  7.1 °C 39.6 °F /  4.2 °C 30.3 in /  1027.0 hPa NNE 6 mph /  9.7 km/h 11 mph /  17.7 km/h 82 % 0 in /  0.0 mm
09:07 45.3 °F /  7.4 °C 40.1 °F /  4.5 °C 30.3 in /  1027.0 hPa NNW 5 mph /  8.0 km/h 13 mph /  20.9 km/h 82 % 0 in /  0.0 mm
09:12 46 °F /  7.8 °C 40.3 °F /  4.6 °C 30.3 in /  1027.0 hPa NNE 4 mph /  6.4 km/h 13 mph /  20.9 km/h 80 % 0 in /  0.0 mm
09:17 46.2 °F /  7.9 °C 40.5 °F /  4.7 °C 30.3 in /  1027.0 hPa NNE 11 mph /  17.7 km/h 14 mph /  22.5 km/h 80 % 0 in /  0.0 mm
09:22 46 °F /  7.8 °C 39.9 °F /  4.4 °C 30.3 in /  1027.0 hPa NNW 9 mph /  14.5 km/h 14 mph /  22.5 km/h 79 % 0 in /  0.0 mm
09:32 45.9 °F /  7.7 °C 40.1 °F /  4.5 °C 30.3 in /  1027.0 hPa NNW 4 mph /  6.4 km/h 15 mph /  24.1 km/h 80 % 0 in /  0.0 mm
09:42 46.2 °F /  7.9 °C 40.5 °F /  4.7 °C 30.3 in /  1027.3 hPa NNW 5 mph /  8.0 km/h 15 mph /  24.1 km/h 80 % 0 in /  0.0 mm
09:47 46.8 °F /  8.2 °C 40.6 °F /  4.8 °C 30.3 in /  1027.0 hPa NW 6 mph /  9.7 km/h 13 mph /  20.9 km/h 79 % 0 in /  0.0 mm
09:52 46.8 °F /  8.2 °C 40.3 °F /  4.6 °C 30.3 in /  1027.3 hPa North 4 mph /  6.4 km/h 13 mph /  20.9 km/h 78 % 0 in /  0.0 mm
09:57 47.1 °F /  8.4 °C 40.3 °F /  4.6 °C 30.3 in /  1027.3 hPa NNW 7 mph /  11.3 km/h 11 mph /  17.7 km/h 77 % 0 in /  0.0 mm
10:02 47.7 °F /  8.7 °C 40.8 °F /  4.9 °C 30.3 in /  1027.3 hPa NNE 6 mph /  9.7 km/h 11 mph /  17.7 km/h 77 % 0 in /  0.0 mm
10:07 48.2 °F /  9.0 °C 41 °F /  5.0 °C 30.3 in /  1027.3 hPa NE 4 mph /  6.4 km/h 12 mph /  19.3 km/h 76 % 0 in /  0.0 mm
10:12 48.6 °F /  9.2 °C 41.4 °F /  5.2 °C 30.3 in /  1027.0 hPa NE 7 mph /  11.3 km/h 12 mph /  19.3 km/h 76 % 0 in /  0.0 mm
10:17 48.7 °F /  9.3 °C 41.5 °F /  5.3 °C 30.3 in /  1027.3 hPa North 3 mph /  4.8 km/h 11 mph /  17.7 km/h 76 % 0 in /  0.0 mm
10:22 49.1 °F /  9.5 °C 41.5 °F /  5.3 °C 30.3 in /  1027.0 hPa North 7 mph /  11.3 km/h 11 mph /  17.7 km/h 75 % 0 in /  0.0 mm
10:32 49.8 °F /  9.9 °C 41.5 °F /  5.3 °C 30.3 in /  1027.0 hPa NW 6 mph /  9.7 km/h 11 mph /  17.7 km/h 73 % 0 in /  0.0 mm
10:37 50.4 °F /  10.2 °C 42.1 °F /  5.6 °C 30.3 in /  1027.3 hPa NNW 3 mph /  4.8 km/h 11 mph /  17.7 km/h 73 % 0 in /  0.0 mm
10:42 50.5 °F /  10.3 °C 42.3 °F /  5.7 °C 30.3 in /  1027.3 hPa NW 6 mph /  9.7 km/h 11 mph /  17.7 km/h 73 % 0 in /  0.0 mm
10:47 50.7 °F /  10.4 °C 42.1 °F /  5.6 °C 30.3 in /  1027.3 hPa NW 9 mph /  14.5 km/h 12 mph /  19.3 km/h 72 % 0 in /  0.0 mm
10:52 50.7 °F /  10.4 °C 42.1 °F /  5.6 °C 30.3 in /  1027.3 hPa North 12 mph /  19.3 km/h 12 mph /  19.3 km/h 72 % 0 in /  0.0 mm
11:02 50.7 °F /  10.4 °C 42.1 °F /  5.6 °C 30.3 in /  1027.3 hPa NE 9 mph /  14.5 km/h 14 mph /  22.5 km/h 72 % 0 in /  0.0 mm
11:12 51.3 °F /  10.7 °C 42.3 °F /  5.7 °C 30.4 in /  1027.7 hPa NE 5 mph /  8.0 km/h 14 mph /  22.5 km/h 71 % 0 in /  0.0 mm
11:17 51.3 °F /  10.7 °C 43 °F /  6.1 °C 30.4 in /  1027.7 hPa NNE 2 mph /  3.2 km/h 14 mph /  22.5 km/h 73 % 0 in /  0.0 mm
11:22 51.4 °F /  10.8 °C 42.4 °F /  5.8 °C 30.4 in /  1027.7 hPa NNW 7 mph /  11.3 km/h 14 mph /  22.5 km/h 71 % 0 in /  0.0 mm
11:32 51.6 °F /  10.9 °C 42.4 °F /  5.8 °C 30.4 in /  1027.7 hPa NNW 8 mph /  12.9 km/h 13 mph /  20.9 km/h 71 % 0 in /  0.0 mm
11:37 51.6 °F /  10.9 °C 43 °F /  6.1 °C 30.4 in /  1027.7 hPa North 5 mph /  8.0 km/h 13 mph /  20.9 km/h 72 % 0 in /  0.0 mm
11:42 52 °F /  11.1 °C 42.8 °F /  6.0 °C 30.4 in /  1027.7 hPa NNE 7 mph /  11.3 km/h 13 mph /  20.9 km/h 71 % 0 in /  0.0 mm
11:47 52 °F /  11.1 °C 43.2 °F /  6.2 °C 30.4 in /  1027.7 hPa NE 6 mph /  9.7 km/h 13 mph /  20.9 km/h 72 % 0 in /  0.0 mm
11:52 52 °F /  11.1 °C 42.4 °F /  5.8 °C 30.4 in /  1027.7 hPa NNE 10 mph /  16.1 km/h 13 mph /  20.9 km/h 70 % 0 in /  0.0 mm
11:57 52.3 °F /  11.3 °C 43.5 °F /  6.4 °C 30.4 in /  1027.7 hPa ENE 6 mph /  9.7 km/h 13 mph /  20.9 km/h 72 % 0 in /  0.0 mm
12:02 52.5 °F /  11.4 °C 43 °F /  6.1 °C 30.4 in /  1027.7 hPa NNE 6 mph /  9.7 km/h 13 mph /  20.9 km/h 70 % 0 in /  0.0 mm
12:07 52.5 °F /  11.4 °C 42.6 °F /  5.9 °C 30.4 in /  1027.7 hPa NNE 6 mph /  9.7 km/h 13 mph /  20.9 km/h 69 % 0 in /  0.0 mm
12:12 53.2 °F /  11.8 °C 43.7 °F /  6.5 °C 30.4 in /  1027.7 hPa NE 6 mph /  9.7 km/h 12 mph /  19.3 km/h 70 % 0 in /  0.0 mm
12:17 52.5 °F /  11.4 °C 41.5 °F /  5.3 °C 30.4 in /  1027.7 hPa NE 5 mph /  8.0 km/h 14 mph /  22.5 km/h 66 % 0 in /  0.0 mm
12:22 53.1 °F /  11.7 °C 43.2 °F /  6.2 °C 30.4 in /  1027.7 hPa NNW 5 mph /  8.0 km/h 14 mph /  22.5 km/h 69 % 0 in /  0.0 mm
12:27 53.6 °F /  12.0 °C 43.7 °F /  6.5 °C 30.4 in /  1027.7 hPa North 1 mph /  1.6 km/h 15 mph /  24.1 km/h 69 % 0 in /  0.0 mm
12:32 53.4 °F /  11.9 °C 43.2 °F /  6.2 °C 30.4 in /  1027.7 hPa NNE 4 mph /  6.4 km/h 15 mph /  24.1 km/h 68 % 0 in /  0.0 mm
12:42 53.6 °F /  12.0 °C 42.1 °F /  5.6 °C 30.4 in /  1027.7 hPa NW 3 mph /  4.8 km/h 13 mph /  20.9 km/h 65 % 0 in /  0.0 mm
12:52 54.3 °F /  12.4 °C 42.8 °F /  6.0 °C 30.4 in /  1027.7 hPa WNW 3 mph /  4.8 km/h 13 mph /  20.9 km/h 65 % 0 in /  0.0 mm
13:02 54.1 °F /  12.3 °C 41.9 °F /  5.5 °C 30.4 in /  1027.7 hPa NW 4 mph /  6.4 km/h 10 mph /  16.1 km/h 63 % 0 in /  0.0 mm
13:12 54.7 °F /  12.6 °C 41.5 °F /  5.3 °C 30.3 in /  1027.3 hPa NW 3 mph /  4.8 km/h 10 mph /  16.1 km/h 61 % 0 in /  0.0 mm
13:17 54.5 °F /  12.5 °C 40.5 °F /  4.7 °C 30.3 in /  1027.3 hPa North 6 mph /  9.7 km/h 10 mph /  16.1 km/h 59 % 0 in /  0.0 mm
13:22 54 °F /  12.2 °C 41.7 °F /  5.4 °C 30.3 in /  1027.3 hPa NE 12 mph /  19.3 km/h 12 mph /  19.3 km/h 63 % 0 in /  0.0 mm
13:27 54.1 °F /  12.3 °C 41.9 °F /  5.5 °C 30.3 in /  1027.3 hPa NNE 5 mph /  8.0 km/h 14 mph /  22.5 km/h 63 % 0 in /  0.0 mm
13:32 54.1 °F /  12.3 °C 41 °F /  5.0 °C 30.3 in /  1027.3 hPa North 2 mph /  3.2 km/h 14 mph /  22.5 km/h 61 % 0 in /  0.0 mm
13:37 54.7 °F /  12.6 °C 41 °F /  5.0 °C 30.3 in /  1027.3 hPa North 3 mph /  4.8 km/h 14 mph /  22.5 km/h 60 % 0 in /  0.0 mm
13:42 55 °F /  12.8 °C 41 °F /  5.0 °C 30.3 in /  1027.3 hPa NE 3 mph /  4.8 km/h 12 mph /  19.3 km/h 59 % 0 in /  0.0 mm
13:47 55.4 °F /  13.0 °C 41.4 °F /  5.2 °C 30.3 in /  1027.3 hPa NW 3 mph /  4.8 km/h 12 mph /  19.3 km/h 59 % 0 in /  0.0 mm
13:52 55.8 °F /  13.2 °C 41.7 °F /  5.4 °C 30.3 in /  1027.3 hPa NE 3 mph /  4.8 km/h 12 mph /  19.3 km/h 59 % 0 in /  0.0 mm
13:57 56.1 °F /  13.4 °C 41.2 °F /  5.1 °C 30.3 in /  1027.3 hPa NNW 4 mph /  6.4 km/h 11 mph /  17.7 km/h 57 % 0 in /  0.0 mm
14:02 55.9 °F /  13.3 °C 40.5 °F /  4.7 °C 30.3 in /  1027.3 hPa NE 2 mph /  3.2 km/h 11 mph /  17.7 km/h 56 % 0 in /  0.0 mm
14:07 56.1 °F /  13.4 °C 41.5 °F /  5.3 °C 30.3 in /  1027.0 hPa NNE 6 mph /  9.7 km/h 13 mph /  20.9 km/h 58 % 0 in /  0.0 mm
14:12 56.7 °F /  13.7 °C 41.2 °F /  5.1 °C 30.3 in /  1027.0 hPa NW 6 mph /  9.7 km/h 13 mph /  20.9 km/h 56 % 0 in /  0.0 mm
14:22 56.5 °F /  13.6 °C 41.4 °F /  5.2 °C 30.3 in /  1027.0 hPa NNE 4 mph /  6.4 km/h 10 mph /  16.1 km/h 57 % 0 in /  0.0 mm
14:27 56.5 °F /  13.6 °C 41.4 °F /  5.2 °C 30.3 in /  1027.0 hPa NNW 4 mph /  6.4 km/h 14 mph /  22.5 km/h 57 % 0 in /  0.0 mm
14:32 56.3 °F /  13.5 °C 41.2 °F /  5.1 °C 30.3 in /  1027.0 hPa NNW 4 mph /  6.4 km/h 14 mph /  22.5 km/h 57 % 0 in /  0.0 mm
14:37 56.7 °F /  13.7 °C 42.1 °F /  5.6 °C 30.3 in /  1027.0 hPa NW 6 mph /  9.7 km/h 14 mph /  22.5 km/h 58 % 0 in /  0.0 mm
14:42 56.7 °F /  13.7 °C 40.3 °F /  4.6 °C 30.3 in /  1027.0 hPa NW 3 mph /  4.8 km/h 12 mph /  19.3 km/h 54 % 0 in /  0.0 mm
14:47 57 °F /  13.9 °C 41.5 °F /  5.3 °C 30.3 in /  1027.0 hPa NNE 5 mph /  8.0 km/h 9 mph /  14.5 km/h 56 % 0 in /  0.0 mm
14:52 57.4 °F /  14.1 °C 42.3 °F /  5.7 °C 30.3 in /  1027.0 hPa North 2 mph /  3.2 km/h 9 mph /  14.5 km/h 57 % 0 in /  0.0 mm
14:57 57.4 °F /  14.1 °C 41.4 °F /  5.2 °C 30.3 in /  1027.0 hPa NE 4 mph /  6.4 km/h 10 mph /  16.1 km/h 55 % 0 in /  0.0 mm
15:02 57 °F /  13.9 °C 40.1 °F /  4.5 °C 30.3 in /  1027.0 hPa North 6 mph /  9.7 km/h 10 mph /  16.1 km/h 53 % 0 in /  0.0 mm
15:12 57.7 °F /  14.3 °C 42.1 °F /  5.6 °C 30.3 in /  1026.6 hPa NE 3 mph /  4.8 km/h 11 mph /  17.7 km/h 56 % 0 in /  0.0 mm
15:17 57.7 °F /  14.3 °C 41.7 °F /  5.4 °C 30.3 in /  1026.6 hPa North 6 mph /  9.7 km/h 11 mph /  17.7 km/h 55 % 0 in /  0.0 mm
15:22 57.7 °F /  14.3 °C 41.2 °F /  5.1 °C 30.3 in /  1026.6 hPa NNW 6 mph /  9.7 km/h 11 mph /  17.7 km/h 54 % 0 in /  0.0 mm
15:27 57.9 °F /  14.4 °C 41.9 °F /  5.5 °C 30.3 in /  1026.6 hPa NE 10 mph /  16.1 km/h 10 mph /  16.1 km/h 55 % 0 in /  0.0 mm
15:32 57.4 °F /  14.1 °C 40.8 °F /  4.9 °C 30.3 in /  1026.6 hPa North 3 mph /  4.8 km/h 10 mph /  16.1 km/h 54 % 0 in /  0.0 mm
15:37 57.7 °F /  14.3 °C 40.3 °F /  4.6 °C 30.3 in /  1026.6 hPa West 6 mph /  9.7 km/h 12 mph /  19.3 km/h 52 % 0 in /  0.0 mm
15:42 57.7 °F /  14.3 °C 41.7 °F /  5.4 °C 30.3 in /  1026.6 hPa NNW 6 mph /  9.7 km/h 12 mph /  19.3 km/h 55 % 0 in /  0.0 mm
15:47 57.7 °F /  14.3 °C 41.2 °F /  5.1 °C 30.3 in /  1026.3 hPa NNW 7 mph /  11.3 km/h 10 mph /  16.1 km/h 54 % 0 in /  0.0 mm
15:52 57.9 °F /  14.4 °C 41.4 °F /  5.2 °C 30.3 in /  1026.3 hPa North 4 mph /  6.4 km/h 13 mph /  20.9 km/h 54 % 0 in /  0.0 mm
16:02 57.9 °F /  14.4 °C 41.4 °F /  5.2 °C 30.3 in /  1026.3 hPa North 10 mph /  16.1 km/h 12 mph /  19.3 km/h 54 % 0 in /  0.0 mm
16:12 58.1 °F /  14.5 °C 41.5 °F /  5.3 °C 30.3 in /  1026.3 hPa NNW 1 mph /  1.6 km/h 10 mph /  16.1 km/h 54 % 0 in /  0.0 mm
16:17 58.1 °F /  14.5 °C 41.5 °F /  5.3 °C 30.3 in /  1026.3 hPa NNE 2 mph /  3.2 km/h 10 mph /  16.1 km/h 54 % 0 in /  0.0 mm
16:22 57.9 °F /  14.4 °C 41.4 °F /  5.2 °C 30.3 in /  1026.3 hPa North 2 mph /  3.2 km/h 11 mph /  17.7 km/h 54 % 0 in /  0.0 mm
16:32 57.6 °F /  14.2 °C 40.1 °F /  4.5 °C 30.3 in /  1026.3 hPa NNE 1 mph /  1.6 km/h 11 mph /  17.7 km/h 52 % 0 in /  0.0 mm
16:42 58.3 °F /  14.6 °C 41.7 °F /  5.4 °C 30.3 in /  1026.3 hPa NW 6 mph /  9.7 km/h 11 mph /  17.7 km/h 54 % 0 in /  0.0 mm
16:47 58.5 °F /  14.7 °C 41.4 °F /  5.2 °C 30.3 in /  1026.0 hPa NNW 6 mph /  9.7 km/h 10 mph /  16.1 km/h 53 % 0 in /  0.0 mm
16:52 58.3 °F /  14.6 °C 41.2 °F /  5.1 °C 30.3 in /  1026.0 hPa NNW 2 mph /  3.2 km/h 12 mph /  19.3 km/h 53 % 0 in /  0.0 mm
16:57 58.3 °F /  14.6 °C 40.8 °F /  4.9 °C 30.3 in /  1026.0 hPa East 1 mph /  1.6 km/h 12 mph /  19.3 km/h 52 % 0 in /  0.0 mm
17:02 58.6 °F /  14.8 °C 40.6 °F /  4.8 °C 30.3 in /  1026.0 hPa NNW 6 mph /  9.7 km/h 12 mph /  19.3 km/h 51 % 0 in /  0.0 mm
17:12 58.3 °F /  14.6 °C 40.8 °F /  4.9 °C 30.3 in /  1026.0 hPa North 3 mph /  4.8 km/h 11 mph /  17.7 km/h 52 % 0 in /  0.0 mm
17:17 58.5 °F /  14.7 °C 40.5 °F /  4.7 °C 30.3 in /  1026.0 hPa NNW 5 mph /  8.0 km/h 11 mph /  17.7 km/h 51 % 0 in /  0.0 mm
17:22 58.5 °F /  14.7 °C 40.5 °F /  4.7 °C 30.3 in /  1026.0 hPa NNW 5 mph /  8.0 km/h 11 mph /  17.7 km/h 51 % 0 in /  0.0 mm
17:27 58.5 °F /  14.7 °C 40.5 °F /  4.7 °C 30.3 in /  1026.0 hPa NW 5 mph /  8.0 km/h 11 mph /  17.7 km/h 51 % 0 in /  0.0 mm
17:32 58.5 °F /  14.7 °C 41.4 °F /  5.2 °C 30.3 in /  1026.0 hPa ENE 2 mph /  3.2 km/h 11 mph /  17.7 km/h 53 % 0 in /  0.0 mm
17:42 58.5 °F /  14.7 °C 40.8 °F /  4.9 °C 30.3 in /  1026.0 hPa North 7 mph /  11.3 km/h 11 mph /  17.7 km/h 52 % 0 in /  0.0 mm
17:47 58.5 °F /  14.7 °C 40.5 °F /  4.7 °C 30.3 in /  1026.0 hPa North 8 mph /  12.9 km/h 10 mph /  16.1 km/h 51 % 0 in /  0.0 mm
17:52 58.6 °F /  14.8 °C 41 °F /  5.0 °C 30.3 in /  1026.0 hPa North 3 mph /  4.8 km/h 11 mph /  17.7 km/h 52 % 0 in /  0.0 mm
17:57 58.6 °F /  14.8 °C 41 °F /  5.0 °C 30.3 in /  1026.0 hPa NNW 2 mph /  3.2 km/h 11 mph /  17.7 km/h 52 % 0 in /  0.0 mm
18:02 58.5 °F /  14.7 °C 40.5 °F /  4.7 °C 30.3 in /  1026.0 hPa North 8 mph /  12.9 km/h 11 mph /  17.7 km/h 51 % 0 in /  0.0 mm
18:12 58.1 °F /  14.5 °C 39.6 °F /  4.2 °C 30.3 in /  1026.0 hPa NW 6 mph /  9.7 km/h 11 mph /  17.7 km/h 50 % 0 in /  0.0 mm
18:17 58.3 °F /  14.6 °C 39.7 °F /  4.3 °C 30.3 in /  1026.0 hPa NNW 7 mph /  11.3 km/h 11 mph /  17.7 km/h 50 % 0 in /  0.0 mm
18:22 58.3 °F /  14.6 °C 40.3 °F /  4.6 °C 30.3 in /  1026.0 hPa North 6 mph /  9.7 km/h 11 mph /  17.7 km/h 51 % 0 in /  0.0 mm
18:32 58.1 °F /  14.5 °C 39.6 °F /  4.2 °C 30.3 in /  1026.0 hPa NW 4 mph /  6.4 km/h 10 mph /  16.1 km/h 50 % 0 in /  0.0 mm
18:37 58.3 °F /  14.6 °C 40.3 °F /  4.6 °C 30.3 in /  1026.0 hPa NE 4 mph /  6.4 km/h 10 mph /  16.1 km/h 51 % 0 in /  0.0 mm
18:42 57.9 °F /  14.4 °C 38.8 °F /  3.8 °C 30.3 in /  1026.0 hPa North 4 mph /  6.4 km/h 11 mph /  17.7 km/h 49 % 0 in /  0.0 mm
18:52 57.9 °F /  14.4 °C 39.4 °F /  4.1 °C 30.3 in /  1026.0 hPa NNW 5 mph /  8.0 km/h 10 mph /  16.1 km/h 50 % 0 in /  0.0 mm
18:57 57.9 °F /  14.4 °C 39.9 °F /  4.4 °C 30.3 in /  1026.0 hPa North 3 mph /  4.8 km/h 11 mph /  17.7 km/h 51 % 0 in /  0.0 mm
19:02 57.9 °F /  14.4 °C 39.9 °F /  4.4 °C 30.3 in /  1026.0 hPa NNE 6 mph /  9.7 km/h 11 mph /  17.7 km/h 51 % 0 in /  0.0 mm
19:12 57.6 °F /  14.2 °C 39 °F /  3.9 °C 30.3 in /  1026.0 hPa NNW 9 mph /  14.5 km/h 9 mph /  14.5 km/h 50 % 0 in /  0.0 mm
19:17 57.4 °F /  14.1 °C 39.4 °F /  4.1 °C 30.3 in /  1026.0 hPa NNW 6 mph /  9.7 km/h 13 mph /  20.9 km/h 51 % 0 in /  0.0 mm
19:22 57.2 °F /  14.0 °C 39.2 °F /  4.0 °C 30.3 in /  1026.0 hPa North 7 mph /  11.3 km/h 13 mph /  20.9 km/h 51 % 0 in /  0.0 mm
19:32 56.7 °F /  13.7 °C 39.7 °F /  4.3 °C 30.3 in /  1025.6 hPa NNW 4 mph /  6.4 km/h 10 mph /  16.1 km/h 53 % 0 in /  0.0 mm
19:37 56.7 °F /  13.7 °C 39.7 °F /  4.3 °C 30.3 in /  1025.6 hPa NNW 3 mph /  4.8 km/h 10 mph /  16.1 km/h 53 % 0 in /  0.0 mm
19:42 56.5 °F /  13.6 °C 40.1 °F /  4.5 °C 30.3 in /  1025.6 hPa NNW 5 mph /  8.0 km/h 9 mph /  14.5 km/h 54 % 0 in /  0.0 mm
19:52 56.1 °F /  13.4 °C 40.1 °F /  4.5 °C 30.3 in /  1025.6 hPa NW 5 mph /  8.0 km/h 8 mph /  12.9 km/h 55 % 0 in /  0.0 mm
19:57 55.9 °F /  13.3 °C 39.9 °F /  4.4 °C 30.3 in /  1025.6 hPa NNW 5 mph /  8.0 km/h 8 mph /  12.9 km/h 55 % 0 in /  0.0 mm
20:02 55.6 °F /  13.1 °C 39.7 °F /  4.3 °C 30.3 in /  1025.6 hPa NNE 4 mph /  6.4 km/h 7 mph /  11.3 km/h 55 % 0 in /  0.0 mm
20:07 55 °F /  12.8 °C 39.6 °F /  4.2 °C 30.3 in /  1026.0 hPa NNW 2 mph /  3.2 km/h 9 mph /  14.5 km/h 56 % 0 in /  0.0 mm
20:12 54.9 °F /  12.7 °C 39.4 °F /  4.1 °C 30.3 in /  1025.6 hPa NNW 3 mph /  4.8 km/h 9 mph /  14.5 km/h 56 % 0 in /  0.0 mm
20:17 54.5 °F /  12.5 °C 39.6 °F /  4.2 °C 30.3 in /  1026.0 hPa NNW 2 mph /  3.2 km/h 9 mph /  14.5 km/h 57 % 0 in /  0.0 mm
20:22 54 °F /  12.2 °C 39.6 °F /  4.2 °C 30.3 in /  1026.0 hPa NNE 4 mph /  6.4 km/h 7 mph /  11.3 km/h 58 % 0 in /  0.0 mm
20:27 53.4 °F /  11.9 °C 39.4 °F /  4.1 °C 30.3 in /  1026.0 hPa NW 2 mph /  3.2 km/h 7 mph /  11.3 km/h 59 % 0 in /  0.0 mm
20:32 53.1 °F /  11.7 °C 39.2 °F /  4.0 °C 30.3 in /  1026.0 hPa NNW 2 mph /  3.2 km/h 7 mph /  11.3 km/h 59 % 0 in /  0.0 mm
20:42 52.3 °F /  11.3 °C 38.8 °F /  3.8 °C 30.3 in /  1026.0 hPa NNW 2 mph /  3.2 km/h 5 mph /  8.0 km/h 60 % 0 in /  0.0 mm
20:47 52.2 °F /  11.2 °C 39.2 °F /  4.0 °C 30.3 in /  1026.0 hPa ENE 3 mph /  4.8 km/h 5 mph /  8.0 km/h 61 % 0 in /  0.0 mm
20:52 52 °F /  11.1 °C 39 °F /  3.9 °C 30.3 in /  1026.0 hPa North 3 mph /  4.8 km/h 6 mph /  9.7 km/h 61 % 0 in /  0.0 mm
20:57 51.6 °F /  10.9 °C 39 °F /  3.9 °C 30.3 in /  1026.0 hPa NNE 2 mph /  3.2 km/h 6 mph /  9.7 km/h 62 % 0 in /  0.0 mm
21:02 51.3 °F /  10.7 °C 39 °F /  3.9 °C 30.3 in /  1026.0 hPa NNE 1 mph /  1.6 km/h 6 mph /  9.7 km/h 63 % 0 in /  0.0 mm
21:07 50.9 °F /  10.5 °C 39.2 °F /  4.0 °C 30.3 in /  1026.0 hPa North 1 mph /  1.6 km/h 5 mph /  8.0 km/h 64 % 0 in /  0.0 mm
21:12 50.7 °F /  10.4 °C 39 °F /  3.9 °C 30.3 in /  1026.3 hPa NNE 2 mph /  3.2 km/h 4 mph /  6.4 km/h 64 % 0 in /  0.0 mm
21:22 50.2 °F /  10.1 °C 38.5 °F /  3.6 °C 30.3 in /  1026.3 hPa Calm   4 mph /  6.4 km/h 64 % 0 in /  0.0 mm
21:27 49.8 °F /  9.9 °C 38.5 °F /  3.6 °C 30.3 in /  1026.0 hPa North 2 mph /  3.2 km/h 4 mph /  6.4 km/h 65 % 0 in /  0.0 mm
21:32 49.6 °F /  9.8 °C 38.3 °F /  3.5 °C 30.3 in /  1026.3 hPa North 1 mph /  1.6 km/h 4 mph /  6.4 km/h 65 % 0 in /  0.0 mm
21:37 49.5 °F /  9.7 °C 38.1 °F /  3.4 °C 30.3 in /  1026.3 hPa NW 2 mph /  3.2 km/h 4 mph /  6.4 km/h 65 % 0 in /  0.0 mm
21:42 49.5 °F /  9.7 °C 38.1 °F /  3.4 °C 30.3 in /  1026.3 hPa North 3 mph /  4.8 km/h 4 mph /  6.4 km/h 65 % 0 in /  0.0 mm
21:52 49.5 °F /  9.7 °C 38.1 °F /  3.4 °C 30.3 in /  1026.3 hPa NNE 2 mph /  3.2 km/h 5 mph /  8.0 km/h 65 % 0 in /  0.0 mm
21:57 49.3 °F /  9.6 °C 38.5 °F /  3.6 °C 30.3 in /  1026.3 hPa NNE 1 mph /  1.6 km/h 5 mph /  8.0 km/h 66 % 0 in /  0.0 mm
22:02 49.3 °F /  9.6 °C 38.5 °F /  3.6 °C 30.3 in /  1026.3 hPa NNE 1 mph /  1.6 km/h 5 mph /  8.0 km/h 66 % 0 in /  0.0 mm
22:12 48.7 °F /  9.3 °C 38.3 °F /  3.5 °C 30.3 in /  1026.3 hPa North 1 mph /  1.6 km/h 4 mph /  6.4 km/h 67 % 0 in /  0.0 mm
22:22 48.4 °F /  9.1 °C 37.9 °F /  3.3 °C 30.3 in /  1026.3 hPa NW 2 mph /  3.2 km/h 4 mph /  6.4 km/h 67 % 0 in /  0.0 mm
22:27 48.4 °F /  9.1 °C 37.9 °F /  3.3 °C 30.3 in /  1026.3 hPa NE 2 mph /  3.2 km/h 4 mph /  6.4 km/h 67 % 0 in /  0.0 mm
22:32 48.4 °F /  9.1 °C 37.9 °F /  3.3 °C 30.3 in /  1026.3 hPa NE 1 mph /  1.6 km/h 4 mph /  6.4 km/h 67 % 0 in /  0.0 mm
22:37 48.4 °F /  9.1 °C 37.6 °F /  3.1 °C 30.3 in /  1026.3 hPa NE 1 mph /  1.6 km/h 4 mph /  6.4 km/h 66 % 0 in /  0.0 mm
22:42 48.2 °F /  9.0 °C 37.8 °F /  3.2 °C 30.3 in /  1026.3 hPa North 1 mph /  1.6 km/h 4 mph /  6.4 km/h 67 % 0 in /  0.0 mm
22:47 48 °F /  8.9 °C 37.6 °F /  3.1 °C 30.3 in /  1026.3 hPa NNW 1 mph /  1.6 km/h 4 mph /  6.4 km/h 67 % 0 in /  0.0 mm
22:52 47.8 °F /  8.8 °C 37.4 °F /  3.0 °C 30.3 in /  1026.3 hPa North 1 mph /  1.6 km/h 3 mph /  4.8 km/h 67 % 0 in /  0.0 mm
23:02 47.8 °F /  8.8 °C 37 °F /  2.8 °C 30.3 in /  1026.3 hPa NNW 1 mph /  1.6 km/h 3 mph /  4.8 km/h 66 % 0 in /  0.0 mm
23:07 47.8 °F /  8.8 °C 37 °F /  2.8 °C 30.3 in /  1026.3 hPa NNW 1 mph /  1.6 km/h 3 mph /  4.8 km/h 66 % 0 in /  0.0 mm
23:12 47.7 °F /  8.7 °C 37.2 °F /  2.9 °C 30.3 in /  1026.3 hPa NNW 1 mph /  1.6 km/h 3 mph /  4.8 km/h 67 % 0 in /  0.0 mm
23:17 47.5 °F /  8.6 °C 37 °F /  2.8 °C 30.3 in /  1026.3 hPa Calm   3 mph /  4.8 km/h 67 % 0 in /  0.0 mm
23:22 47.3 °F /  8.5 °C 37.2 °F /  2.9 °C 30.3 in /  1026.3 hPa NNW 1 mph /  1.6 km/h 2 mph /  3.2 km/h 68 % 0 in /  0.0 mm
23:32 46.8 °F /  8.2 °C 37.2 °F /  2.9 °C 30.3 in /  1026.3 hPa NW 1 mph /  1.6 km/h 2 mph /  3.2 km/h 69 % 0 in /  0.0 mm
23:37 46.6 °F /  8.1 °C 37 °F /  2.8 °C 30.3 in /  1026.3 hPa NW 2 mph /  3.2 km/h 2 mph /  3.2 km/h 69 % 0 in /  0.0 mm
23:42 46.8 °F /  8.2 °C 37.2 °F /  2.9 °C 30.3 in /  1026.3 hPa NW 2 mph /  3.2 km/h 2 mph /  3.2 km/h 69 % 0 in /  0.0 mm
23:52 46.8 °F /  8.2 °C 36.7 °F /  2.6 °C 30.3 in /  1026.3 hPa NW 1 mph /  1.6 km/h 3 mph /  4.8 km/h 68 % 0 in /  0.0 mm
23:57 46.8 °F /  8.2 °C 36.7 °F /  2.6 °C 30.3 in /  1026.3 hPa NW 1 mph /  1.6 km/h 3 mph /  4.8 km/h 68 % 0 in /  0.0 mm
Meteo18
Compliments of Weather Underground - 4 mb

Script developed by  Jim McMurry - jmcmurry@mwt.net Adapted for the template by  Wim van der Kuil - Leuven-Template.eu

You find our weather info also at:

European Weather Network

Weather Underground

Equipment we use:

Weather-station
Davis Vue

Weather-program
Meteohub

Weather-server
Raspberry PI 2 B+

Provider
1 and 1

Davis Vue

Meteohub

Raspberry PI 2 B+

1 and 1